Sunnyside, Illinois
Current Conditions -  °F | °C
As of 10:55 PM on Sunday 19 Oct 2014 (Local Time) from KUGN Reporting Station
Clear Clear  
Wind Chill: 52°   Ceiling: Unl
Heat Index: 52°   Visibility: 10mi
Dew Point: 42°   Wind: 12mph
Humidity: 69%   Direction: 220°SW
Pressure: 29.88"   Gusts: NA
Location:  42.359°N, 88.2783°W
Report Text: KUGN 200355Z AUTO 22010KT 10SM CLR 11/06 A2988 RMK AO2 SLP120 T01110056
Loading
Personal Weather Stations






























Interactive Weather Map
Tropical Storm Tracking
New forecast layout! Learn more

10-Day Weather Forecast

Advertisements
Track Severe Weather on mobile